createdAt,value
2022-10-26T00:00:32.553Z,932.36
2022-10-26T00:01:32.708Z,932.37
2022-10-26T00:02:32.587Z,932.40
2022-10-26T00:03:32.512Z,932.44
2022-10-26T00:04:32.494Z,932.48
2022-10-26T00:05:32.498Z,932.50
2022-10-26T00:06:32.444Z,932.54
2022-10-26T00:07:32.508Z,932.46
2022-10-26T00:08:32.449Z,932.55
2022-10-26T00:09:32.445Z,932.50
2022-10-26T00:10:32.408Z,932.48
2022-10-26T00:11:32.432Z,932.58
2022-10-26T00:12:32.400Z,932.55
2022-10-26T00:13:32.411Z,932.54
2022-10-26T00:14:32.391Z,932.58
2022-10-26T00:15:32.342Z,932.60
2022-10-26T00:16:32.816Z,932.58
2022-10-26T00:17:32.369Z,932.63
2022-10-26T00:18:32.383Z,932.61
2022-10-26T00:19:32.350Z,932.61
2022-10-26T00:20:33.004Z,932.59
2022-10-26T00:21:32.303Z,932.67
2022-10-26T00:22:32.292Z,932.59
2022-10-26T00:23:32.313Z,932.59
2022-10-26T00:24:32.253Z,932.55
2022-10-26T00:25:32.935Z,932.54
2022-10-26T00:26:32.214Z,932.53
2022-10-26T00:27:32.196Z,932.60
2022-10-26T00:28:32.245Z,932.57
2022-10-26T00:29:32.229Z,932.55
2022-10-26T00:30:32.170Z,932.56
2022-10-26T00:31:32.198Z,932.55
2022-10-26T00:32:32.208Z,932.60
2022-10-26T00:33:32.152Z,932.55
2022-10-26T00:34:32.144Z,932.56
2022-10-26T00:35:45.192Z,932.59
2022-10-26T00:36:32.111Z,932.56
2022-10-26T00:37:32.073Z,932.59
2022-10-26T00:38:32.112Z,932.59
2022-10-26T00:39:32.106Z,932.62
2022-10-26T00:40:32.777Z,932.65
2022-10-26T00:41:32.092Z,932.61
2022-10-26T00:42:32.077Z,932.60
2022-10-26T00:43:32.015Z,932.55
2022-10-26T00:44:36.063Z,932.59
2022-10-26T00:45:32.036Z,932.54
2022-10-26T00:46:32.021Z,932.56
2022-10-26T00:47:32.066Z,932.56
2022-10-26T00:48:31.996Z,932.56
2022-10-26T00:49:32.684Z,932.54
2022-10-26T00:50:31.963Z,932.57
2022-10-26T00:51:31.915Z,932.57
2022-10-26T00:52:31.972Z,932.60
2022-10-26T00:53:32.163Z,932.57
2022-10-26T00:54:31.943Z,932.56
2022-10-26T00:55:31.921Z,932.52
2022-10-26T00:56:31.874Z,932.54
2022-10-26T00:57:31.969Z,932.51
2022-10-26T00:58:31.886Z,932.53
2022-10-26T00:59:32.414Z,932.48
2022-10-26T01:00:32.529Z,932.52
2022-10-26T01:01:31.994Z,932.53
2022-10-26T01:02:31.821Z,932.51
2022-10-26T01:03:31.848Z,932.54
2022-10-26T01:04:31.836Z,932.55
2022-10-26T01:05:31.832Z,932.52
2022-10-26T01:06:31.779Z,932.55
2022-10-26T01:07:32.416Z,932.53
2022-10-26T01:08:32.338Z,932.54
2022-10-26T01:09:31.755Z,932.54
2022-10-26T01:10:31.743Z,932.50
2022-10-26T01:11:31.914Z,932.52
2022-10-26T01:12:31.724Z,932.52
2022-10-26T01:13:31.673Z,932.48
2022-10-26T01:14:31.694Z,932.51
2022-10-26T01:15:31.688Z,932.47
2022-10-26T01:16:31.669Z,932.48
2022-10-26T01:17:31.643Z,932.48
2022-10-26T01:18:32.371Z,932.50
2022-10-26T01:19:31.647Z,932.48
2022-10-26T01:20:31.612Z,932.48
2022-10-26T01:21:31.576Z,932.46
2022-10-26T01:22:31.569Z,932.48
2022-10-26T01:23:31.561Z,932.46
2022-10-26T01:24:32.416Z,932.48
2022-10-26T01:25:31.581Z,932.46
2022-10-26T01:26:31.558Z,932.44
2022-10-26T01:27:31.510Z,932.44
2022-10-26T01:28:31.571Z,932.42
2022-10-26T01:29:31.558Z,932.41
2022-10-26T01:30:31.479Z,932.42
2022-10-26T01:31:31.492Z,932.40
2022-10-26T01:32:31.492Z,932.39
2022-10-26T01:33:31.444Z,932.38
2022-10-26T01:34:31.473Z,932.37
2022-10-26T01:35:31.443Z,932.38
2022-10-26T01:37:31.115Z,932.39
2022-10-26T01:38:31.441Z,932.39
2022-10-26T01:39:31.372Z,932.37
2022-10-26T01:40:31.400Z,932.35
2022-10-26T01:41:31.377Z,932.33
2022-10-26T01:42:31.341Z,932.33
2022-10-26T01:43:31.849Z,932.36
2022-10-26T01:44:31.351Z,932.31
2022-10-26T01:45:31.288Z,932.32
2022-10-26T01:46:31.300Z,932.31
2022-10-26T01:47:31.356Z,932.30
2022-10-26T01:48:31.321Z,932.30
2022-10-26T01:49:31.247Z,932.22
2022-10-26T01:50:31.273Z,932.25
2022-10-26T01:51:31.284Z,932.17
2022-10-26T01:52:31.264Z,932.14
2022-10-26T01:53:31.239Z,932.18
2022-10-26T01:54:31.239Z,932.16
2022-10-26T01:55:31.225Z,932.17
2022-10-26T01:56:31.163Z,932.16
2022-10-26T01:57:31.246Z,932.24
2022-10-26T01:58:31.190Z,932.13
2022-10-26T01:59:31.440Z,932.08
2022-10-26T02:00:31.157Z,932.05
2022-10-26T02:01:31.210Z,932.05
2022-10-26T02:02:31.109Z,932.03
2022-10-26T02:03:31.207Z,932.00
2022-10-26T02:04:31.117Z,931.99
2022-10-26T02:05:31.103Z,931.98
2022-10-26T02:06:31.103Z,932.01
2022-10-26T02:07:31.846Z,932.02
2022-10-26T02:08:31.903Z,932.00
2022-10-26T02:09:31.038Z,931.94
2022-10-26T02:10:31.041Z,931.95
2022-10-26T02:11:31.055Z,931.92
2022-10-26T02:12:31.071Z,931.92
2022-10-26T02:13:30.972Z,931.91
2022-10-26T02:14:30.970Z,931.93
2022-10-26T02:15:33.007Z,931.97
2022-10-26T02:16:30.925Z,931.89
2022-10-26T02:17:30.979Z,931.90
2022-10-26T02:18:30.973Z,931.91
2022-10-26T02:19:30.924Z,931.90
2022-10-26T02:20:30.933Z,931.87
2022-10-26T02:21:30.884Z,931.85
2022-10-26T02:22:30.896Z,931.80
2022-10-26T02:23:31.895Z,931.81
2022-10-26T02:24:30.857Z,931.84
2022-10-26T02:25:30.858Z,931.84
2022-10-26T02:26:31.496Z,931.81
2022-10-26T02:27:30.848Z,931.83
2022-10-26T02:28:30.810Z,931.83
2022-10-26T02:29:30.857Z,931.81
2022-10-26T02:30:30.825Z,931.80
2022-10-26T02:31:30.785Z,931.82
2022-10-26T08:32:02.010Z,930.91
2022-10-26T08:33:01.961Z,930.89
2022-10-26T08:34:01.975Z,930.97
2022-10-26T08:35:01.905Z,931.04
2022-10-26T08:36:01.964Z,930.97
2022-10-26T08:37:01.925Z,931.00
2022-10-26T08:38:01.890Z,931.03
2022-10-26T08:39:02.707Z,931.01
2022-10-26T08:40:03.209Z,931.01
2022-10-26T08:41:01.842Z,931.05
2022-10-26T08:42:01.838Z,931.00
2022-10-26T08:43:01.861Z,931.05
2022-10-26T08:44:01.857Z,931.07
2022-10-26T08:45:01.821Z,931.02
2022-10-26T08:46:01.861Z,931.03
2022-10-26T08:47:01.773Z,931.04
2022-10-26T08:48:01.795Z,931.03
2022-10-26T08:49:03.367Z,931.05
2022-10-26T08:50:01.791Z,931.02
2022-10-26T08:51:01.774Z,931.00
2022-10-26T08:52:01.743Z,931.06
2022-10-26T08:53:01.721Z,931.06
2022-10-26T08:54:01.719Z,931.03
2022-10-26T08:55:01.684Z,931.03
2022-10-26T08:56:01.748Z,931.07
2022-10-26T08:57:01.702Z,931.06
2022-10-26T08:58:01.694Z,931.06
2022-10-26T08:59:01.646Z,931.13
2022-10-26T09:00:01.666Z,931.15
2022-10-26T09:01:01.676Z,931.14
2022-10-26T09:02:01.670Z,931.15
2022-10-26T09:03:01.637Z,931.16
2022-10-26T09:05:01.763Z,931.14
2022-10-26T09:06:01.738Z,931.21
2022-10-26T09:07:02.318Z,931.14
2022-10-26T09:08:01.542Z,931.16
2022-10-26T09:09:01.525Z,931.16
2022-10-26T09:10:01.581Z,931.17
2022-10-26T09:11:02.141Z,931.19
2022-10-26T09:12:01.491Z,931.08
2022-10-26T09:13:02.146Z,931.15
2022-10-26T09:14:01.465Z,931.20
2022-10-26T09:15:01.516Z,931.22
2022-10-26T09:16:01.483Z,931.20
2022-10-26T09:17:01.423Z,931.32
2022-10-26T09:18:01.439Z,931.24
2022-10-26T09:19:02.899Z,931.23
2022-10-26T09:20:01.437Z,931.32
2022-10-26T09:21:01.421Z,931.34
2022-10-26T09:22:01.456Z,931.36
2022-10-26T09:23:01.404Z,931.30
2022-10-26T09:24:01.352Z,931.46
2022-10-26T09:25:05.355Z,931.40
2022-10-26T09:26:01.327Z,931.41
2022-10-26T09:27:01.405Z,931.39
2022-10-26T09:28:01.331Z,931.52
2022-10-26T09:29:01.302Z,931.42
2022-10-26T09:30:01.283Z,931.39
2022-10-26T09:31:01.324Z,931.41
2022-10-26T09:32:01.322Z,931.43
2022-10-26T09:33:01.217Z,931.46
2022-10-26T09:34:01.278Z,931.52
2022-10-26T09:35:01.254Z,931.53
2022-10-26T09:36:01.239Z,931.47
2022-10-26T09:37:01.241Z,931.50
2022-10-26T09:38:01.214Z,931.49
2022-10-26T09:39:01.251Z,931.47
2022-10-26T09:40:01.209Z,931.43
2022-10-26T09:41:01.129Z,931.50
2022-10-26T09:42:01.167Z,931.48
2022-10-26T09:43:02.022Z,931.50
2022-10-26T09:44:01.833Z,931.56
2022-10-26T09:45:01.880Z,931.59
2022-10-26T09:46:01.130Z,931.55
2022-10-26T09:47:01.112Z,931.59
2022-10-26T09:48:03.999Z,931.60
2022-10-26T09:50:01.092Z,931.66
2022-10-26T09:51:03.745Z,931.67
2022-10-26T09:52:01.137Z,931.53
2022-10-26T09:53:01.036Z,931.67
2022-10-26T09:54:01.015Z,931.59
2022-10-26T09:55:01.015Z,931.66
2022-10-26T09:56:01.023Z,931.63
2022-10-26T09:57:01.027Z,931.63
2022-10-26T09:58:00.959Z,931.53
2022-10-26T09:59:00.985Z,931.58
2022-10-26T10:00:00.952Z,931.59
2022-10-26T10:01:00.956Z,931.63
2022-10-26T10:02:00.982Z,931.63
2022-10-26T10:03:00.958Z,931.81
2022-10-26T10:04:00.928Z,931.68
2022-10-26T10:05:00.866Z,931.67
2022-10-26T10:06:00.886Z,931.70
2022-10-26T10:07:01.546Z,931.70
2022-10-26T10:08:00.837Z,931.69
2022-10-26T10:09:00.840Z,931.62
2022-10-26T10:10:00.841Z,931.63
2022-10-26T10:11:00.794Z,931.72
2022-10-26T10:12:00.831Z,931.61
2022-10-26T10:13:01.533Z,931.66
2022-10-26T10:14:00.756Z,931.61
2022-10-26T10:15:00.813Z,931.60
2022-10-26T10:16:00.770Z,931.68
2022-10-26T10:17:00.758Z,931.66
2022-10-26T10:18:00.765Z,931.63
2022-10-26T10:19:00.850Z,931.70
2022-10-26T10:20:01.385Z,931.73
2022-10-26T10:21:00.696Z,931.87
2022-10-26T10:22:00.710Z,931.70
2022-10-26T10:23:00.691Z,931.72
2022-10-26T10:24:00.680Z,931.81
2022-10-26T10:25:00.655Z,931.73
2022-10-26T10:26:00.643Z,931.75
2022-10-26T10:27:00.631Z,931.79
2022-10-26T10:28:00.626Z,931.69
2022-10-26T10:29:00.656Z,931.75
2022-10-26T10:30:04.041Z,931.73
2022-10-26T10:31:00.589Z,931.81
2022-10-26T10:32:00.590Z,931.66
2022-10-26T10:33:00.625Z,931.74
2022-10-26T10:34:00.524Z,931.66
2022-10-26T10:35:00.561Z,931.77
2022-10-26T10:36:00.537Z,931.71
2022-10-26T10:37:00.583Z,931.79
2022-10-26T10:38:00.503Z,931.77
2022-10-26T10:39:00.517Z,931.76
2022-10-26T10:40:00.514Z,931.73
2022-10-26T10:41:00.518Z,931.78
2022-10-26T10:42:00.469Z,931.77
2022-10-26T10:43:00.435Z,931.75
2022-10-26T10:44:00.424Z,931.73
2022-10-26T10:45:00.423Z,931.71
2022-10-26T10:46:00.475Z,931.76
2022-10-26T10:47:00.443Z,931.73
2022-10-26T10:48:01.385Z,931.74
2022-10-26T10:49:00.383Z,931.69
2022-10-26T10:50:00.402Z,931.65
2022-10-26T10:51:00.358Z,931.70
2022-10-26T10:52:00.323Z,931.69
2022-10-26T10:53:00.353Z,931.71
2022-10-26T10:54:00.368Z,931.67
2022-10-26T10:55:00.360Z,931.73
2022-10-26T10:56:00.335Z,931.73
2022-10-26T10:57:00.326Z,931.71
2022-10-26T10:58:00.260Z,931.71
2022-10-26T10:59:00.286Z,931.75
2022-10-26T11:00:00.311Z,931.76
2022-10-26T11:01:00.275Z,931.64
2022-10-26T11:02:00.407Z,931.69
2022-10-26T11:03:00.229Z,931.66
2022-10-26T11:04:00.194Z,931.63
2022-10-26T11:05:00.195Z,931.63
2022-10-26T11:06:00.243Z,931.68
2022-10-26T11:07:00.219Z,931.65
2022-10-26T11:08:00.194Z,931.63
2022-10-26T11:09:00.127Z,931.66
2022-10-26T11:10:00.238Z,931.64
2022-10-26T11:11:00.139Z,931.64
2022-10-26T11:12:00.176Z,931.62
2022-10-26T11:13:00.114Z,931.65
2022-10-26T11:14:00.872Z,931.63
2022-10-26T11:15:00.104Z,931.66
2022-10-26T11:16:00.114Z,931.72
2022-10-26T11:17:00.067Z,931.69
2022-10-26T11:18:00.068Z,931.80
2022-10-26T11:19:00.097Z,931.71
2022-10-26T11:20:00.022Z,931.70
2022-10-26T11:21:00.007Z,931.68
2022-10-26T11:22:00.081Z,931.69
2022-10-26T11:23:00.167Z,931.61
2022-10-26T11:23:59.985Z,931.62
2022-10-26T11:24:59.979Z,931.62
2022-10-26T11:25:59.963Z,931.62
2022-10-26T11:26:59.994Z,931.67
2022-10-26T11:27:59.959Z,931.66
2022-10-26T11:28:59.926Z,931.72
2022-10-26T11:29:59.943Z,931.69
2022-10-26T11:30:59.899Z,931.67
2022-10-26T11:32:00.949Z,931.67
2022-10-26T11:32:59.914Z,931.63
2022-10-26T11:33:59.904Z,931.70
2022-10-26T11:34:59.873Z,931.68
2022-10-26T11:35:59.883Z,931.68
2022-10-26T11:36:59.841Z,931.73
2022-10-26T11:37:59.869Z,931.39
2022-10-26T11:39:02.719Z,931.48
2022-10-26T11:39:59.800Z,931.49
2022-10-26T11:41:01.540Z,931.48
2022-10-26T11:41:59.822Z,931.50
2022-10-26T11:43:03.398Z,931.46
2022-10-26T11:43:59.828Z,931.52
2022-10-26T11:44:59.739Z,931.50
2022-10-26T11:46:00.432Z,931.51
2022-10-26T11:46:59.759Z,931.54
2022-10-26T11:47:59.718Z,931.59
2022-10-26T11:48:59.780Z,931.60
2022-10-26T11:49:59.725Z,931.55
2022-10-26T12:41:17.057Z,931.55
2022-10-26T12:42:17.829Z,931.55
2022-10-26T12:43:19.012Z,931.56
2022-10-26T12:44:17.844Z,931.54
2022-10-26T12:45:18.878Z,931.59
2022-10-26T12:46:17.834Z,931.61
2022-10-26T12:47:17.794Z,931.58
2022-10-26T12:48:27.563Z,931.56
2022-10-26T12:49:18.483Z,931.53
2022-10-26T12:50:17.766Z,931.50
2022-10-26T13:35:56.047Z,931.16
2022-10-26T13:36:55.951Z,931.14
2022-10-26T13:58:43.016Z,930.76
2022-10-26T13:59:42.745Z,930.70
2022-10-26T14:06:52.624Z,930.67
2022-10-26T14:07:56.875Z,930.61
2022-10-26T14:09:13.824Z,930.59
2022-10-26T14:09:53.507Z,930.64
2022-10-26T14:14:12.235Z,930.59
2022-10-26T14:15:13.865Z,930.59
2022-10-26T15:49:57.379Z,929.10
2022-10-26T15:51:00.294Z,929.04
2022-10-26T16:32:06.298Z,928.09
2022-10-26T16:33:05.269Z,928.09
2022-10-26T16:54:42.844Z,927.49
2022-10-26T16:57:16.428Z,927.57
2022-10-26T16:57:41.856Z,927.60
2022-10-26T16:58:41.280Z,927.57
2022-10-26T17:06:40.814Z,927.41
2022-10-26T17:07:41.820Z,927.40
2022-10-26T17:09:57.474Z,927.38
2022-10-26T17:10:55.314Z,927.34
2022-10-26T17:15:47.903Z,927.44
2022-10-26T17:16:46.779Z,927.46
2022-10-26T17:17:46.758Z,927.48
2022-10-26T17:23:38.642Z,927.47
2022-10-26T17:24:37.836Z,927.42
2022-10-26T17:37:58.131Z,927.22
2022-10-26T17:38:59.101Z,927.18
2022-10-26T17:41:22.627Z,927.13
2022-10-26T17:42:23.610Z,927.15
2022-10-26T18:17:55.553Z,926.98
2022-10-26T18:18:44.985Z,927.00
2022-10-26T18:20:07.322Z,927.00
2022-10-26T18:20:45.032Z,926.97
2022-10-26T18:23:07.134Z,926.96
2022-10-26T18:24:08.128Z,926.99
2022-10-26T18:25:08.192Z,926.96
2022-10-26T18:26:11.394Z,926.96
2022-10-26T18:27:08.192Z,926.95
2022-10-26T18:28:29.684Z,926.95
2022-10-26T18:29:08.083Z,926.94
2022-10-26T18:30:08.180Z,926.93
2022-10-26T18:31:08.084Z,926.90
2022-10-26T18:32:30.193Z,926.85
2022-10-26T18:33:08.188Z,926.85
2022-10-26T18:34:08.074Z,926.90
2022-10-26T18:35:08.019Z,926.86
2022-10-26T18:36:08.041Z,926.86
2022-10-26T18:40:56.043Z,926.82
2022-10-26T18:41:53.328Z,926.85
2022-10-26T18:43:13.220Z,926.83
2022-10-26T18:43:52.852Z,926.82
2022-10-26T18:44:52.652Z,926.78
2022-10-26T18:46:17.526Z,926.81
2022-10-26T18:46:52.446Z,926.79
